Portada
METAR-TAF:

METAR-TAF

Aeroports :

Osijek, Croàcia

latitud: 45-27N, longitud: 018-48E, altitud: 88 m

Observació

L'informe es va fer fa 31 minuts, a les 17:30 UTC
Vent 4 kt amb direcció variable
Temperatura 15°C
Humitat 88%
Pressió 1006 hPa
Visibilitat 10 km o més
Núvols disperses a una alçada de 4000 ft

METAR: LDOS 031730Z VRB04KT 9999 SCT040 15/13 Q1006

Hora: 20:01 (18:01 UTC)

Pronòstic

L'informe es va fer fa 36 minuts, a les 17:25 UTC
Pronòstic vàlid del 03 a les 18 UTC al 04 a les 18 UTC
Vent 5 kt del Oest/Sud-Oest
Visibilitat 10 km o més
Cel ennuvolat a una alçada de 3500 ft
Temporalment
l' 04 a les 08 UTC al 04 a les 14 UTC
Vent 15 kt del Oest/Sud-Oest
Probabilitat 30% :
Temporalment
l' 04 a les 11 UTC al 04 a les 15 UTC
Escasses núvols a una alçada de 4000 ft, Cumulonimbus.
tempesta, pluja

TAF: LDOS 031725Z 0318/0418 24005KT 9999 BKN035 TX28/0413Z TN12/0404Z TEMPO 0408/0414 24015KT PROB30 TEMPO 0411/0415 -TSRA FEW040CB

Observacions i pronòstics meteorològics de més de 4000 aeroports (METAR i TAF).

Les estacions disponibles són els punts grocs i vermells al mapa.

Posi el ratolí al punt desitjat per veure el nom de l'estació.

Feu clic per veure les observacions i els pronòstics meteorològics.

Per canviar el mapa: feu clic els botons verds amb una creu de color negre per apropar; al botó verd amb un guió per allunyar la imatge; o en les fletxes verdes per a mapes adjacents.


METAR-TAF: